BEL1MA EBAW-EKBI
Flight info
| Callsign | BEL1MA |
|---|---|
| Flight time | N/A |
| Altitude | 37000 |
| Route | NIK L191 VICOT N873 JUIST DCT DOSUR GINUB |
| Aircraft | A320/M-SDE3FGHIRWY/LB1 |
Departure
| Time | N/A |
|---|---|
| Airport | Antwerp International Airport (Deurne) (EBAW) |
Arrival
| Time | 2026-04-27 19:34 |
|---|---|
| Airport | Billund Airport (EKBI) |
| Time | Latitude | Longitude | Altitude | Speed | Heading |
|---|---|---|---|---|---|
| 2026-04-27 19:07 | 54.86830 | 9.20413 | 37328 ft | 455 kts | 40° |
| 2026-04-27 19:08 | 54.89386 | 9.23541 | 37319 ft | 448 kts | 22° |
| 2026-04-27 19:08 | 54.92311 | 9.25213 | 37326 ft | 441 kts | 7° |
| 2026-04-27 19:08 | 54.95348 | 9.25933 | 37319 ft | 440 kts | 4° |
| 2026-04-27 19:09 | 55.01380 | 9.27126 | 37310 ft | 431 kts | 4° |
| 2026-04-27 19:09 | 55.04349 | 9.27199 | 37205 ft | 426 kts | 351° |
| 2026-04-27 19:09 | 55.07199 | 9.25937 | 36612 ft | 421 kts | 334° |
| 2026-04-27 19:09 | 55.09822 | 9.23730 | 36040 ft | 418 kts | 332° |
| 2026-04-27 19:10 | 55.12423 | 9.21488 | 35527 ft | 415 kts | 332° |
| 2026-04-27 19:10 | 55.14999 | 9.19278 | 35051 ft | 411 kts | 332° |
| 2026-04-27 19:10 | 55.17560 | 9.17089 | 34595 ft | 407 kts | 332° |
| 2026-04-27 19:10 | 55.19243 | 9.15653 | 34292 ft | 405 kts | 332° |
| 2026-04-27 19:11 | 55.22586 | 9.12802 | 33583 ft | 401 kts | 332° |
| 2026-04-27 19:11 | 55.25086 | 9.10672 | 33097 ft | 397 kts | 332° |
| 2026-04-27 19:11 | 55.27561 | 9.08559 | 32627 ft | 393 kts | 331° |
| 2026-04-27 19:11 | 55.30007 | 9.06467 | 32172 ft | 389 kts | 331° |
| 2026-04-27 19:12 | 55.32429 | 9.04391 | 31725 ft | 385 kts | 331° |
| 2026-04-27 19:12 | 55.34826 | 9.02337 | 31290 ft | 381 kts | 331° |
| 2026-04-27 19:12 | 55.37203 | 9.00294 | 30737 ft | 381 kts | 330° |
| 2026-04-27 19:12 | 55.39614 | 8.98210 | 29648 ft | 391 kts | 330° |
| 2026-04-27 19:13 | 55.42091 | 8.96058 | 28485 ft | 402 kts | 331° |
| 2026-04-27 19:13 | 55.44512 | 8.93578 | 27479 ft | 404 kts | 319° |
| 2026-04-27 19:13 | 55.46398 | 8.89941 | 26536 ft | 404 kts | 301° |
| 2026-04-27 19:13 | 55.47517 | 8.85409 | 25624 ft | 406 kts | 283° |
| 2026-04-27 19:14 | 55.47881 | 8.80456 | 24737 ft | 409 kts | 275° |
| 2026-04-27 19:14 | 55.48075 | 8.75505 | 23881 ft | 412 kts | 274° |
| 2026-04-27 19:14 | 55.48260 | 8.70453 | 22872 ft | 414 kts | 274° |
| 2026-04-27 19:14 | 55.48437 | 8.65369 | 21898 ft | 416 kts | 274° |
| 2026-04-27 19:15 | 55.48607 | 8.60269 | 20952 ft | 418 kts | 274° |
| 2026-04-27 19:15 | 55.48767 | 8.55151 | 20038 ft | 419 kts | 274° |
| 2026-04-27 19:15 | 55.48919 | 8.50022 | 19145 ft | 419 kts | 274° |
| 2026-04-27 19:15 | 55.49070 | 8.44890 | 18259 ft | 418 kts | 274° |
| 2026-04-27 19:16 | 55.49217 | 8.39771 | 17306 ft | 418 kts | 274° |
| 2026-04-27 19:16 | 55.49315 | 8.36377 | 16687 ft | 418 kts | 274° |
| 2026-04-27 19:16 | 55.49513 | 8.29536 | 15604 ft | 416 kts | 274° |
| 2026-04-27 19:16 | 55.49641 | 8.24549 | 15464 ft | 398 kts | 274° |
| 2026-04-27 19:17 | 55.49759 | 8.19834 | 15339 ft | 382 kts | 274° |
| 2026-04-27 19:17 | 55.49868 | 8.15248 | 15211 ft | 366 kts | 273° |
| 2026-04-27 19:17 | 55.49976 | 8.10854 | 15090 ft | 352 kts | 273° |
| 2026-04-27 19:17 | 55.50079 | 8.06611 | 14958 ft | 340 kts | 274° |
| 2026-04-27 19:18 | 55.50188 | 8.02564 | 14833 ft | 319 kts | 274° |
| 2026-04-27 19:18 | 55.50270 | 7.98788 | 14625 ft | 300 kts | 274° |
| 2026-04-27 19:18 | 55.50353 | 7.95080 | 13822 ft | 304 kts | 274° |
| 2026-04-27 19:18 | 55.50431 | 7.91347 | 13065 ft | 304 kts | 274° |
| 2026-04-27 19:19 | 55.50503 | 7.87634 | 12400 ft | 301 kts | 274° |
| 2026-04-27 19:19 | 55.50587 | 7.83965 | 11762 ft | 297 kts | 274° |
| 2026-04-27 19:19 | 55.50669 | 7.80336 | 11102 ft | 295 kts | 273° |
| 2026-04-27 19:19 | 55.50760 | 7.76744 | 10458 ft | 292 kts | 274° |
| 2026-04-27 19:20 | 55.51127 | 7.73259 | 9768 ft | 287 kts | 295° |
| 2026-04-27 19:20 | 55.52274 | 7.70484 | 9101 ft | 278 kts | 323° |
| 2026-04-27 19:20 | 55.53936 | 7.69003 | 8433 ft | 269 kts | 350° |
| 2026-04-27 19:20 | 55.55770 | 7.69054 | 7744 ft | 263 kts | 16° |
| 2026-04-27 19:21 | 55.57387 | 7.70499 | 7212 ft | 262 kts | 40° |
| 2026-04-27 19:21 | 55.58518 | 7.72987 | 6796 ft | 261 kts | 63° |
| 2026-04-27 19:21 | 55.59065 | 7.76045 | 6335 ft | 261 kts | 75° |
| 2026-04-27 19:21 | 55.59491 | 7.79164 | 5910 ft | 260 kts | 75° |
| 2026-04-27 19:22 | 55.59910 | 7.82265 | 5497 ft | 258 kts | 75° |
| 2026-04-27 19:22 | 55.60326 | 7.85347 | 5063 ft | 257 kts | 76° |
| 2026-04-27 19:22 | 55.60737 | 7.88399 | 4646 ft | 254 kts | 76° |
| 2026-04-27 19:22 | 55.61146 | 7.91422 | 4217 ft | 252 kts | 76° |
| 2026-04-27 19:23 | 55.61554 | 7.94421 | 3784 ft | 250 kts | 76° |
| 2026-04-27 19:23 | 55.61955 | 7.97397 | 3369 ft | 248 kts | 77° |
| 2026-04-27 19:23 | 55.62350 | 8.00351 | 3034 ft | 244 kts | 77° |
| 2026-04-27 19:23 | 55.62743 | 8.03290 | 3014 ft | 246 kts | 77° |
| 2026-04-27 19:24 | 55.63139 | 8.06241 | 3013 ft | 247 kts | 77° |
| 2026-04-27 19:24 | 55.63532 | 8.09201 | 3013 ft | 247 kts | 77° |
| 2026-04-27 19:24 | 55.63925 | 8.12161 | 3013 ft | 247 kts | 77° |
| 2026-04-27 19:24 | 55.64314 | 8.15084 | 3014 ft | 247 kts | 77° |
| 2026-04-27 19:25 | 55.64708 | 8.18043 | 3015 ft | 247 kts | 77° |
| 2026-04-27 19:25 | 55.65103 | 8.21006 | 3013 ft | 247 kts | 77° |
| 2026-04-27 19:25 | 55.65495 | 8.23968 | 3014 ft | 247 kts | 77° |
| 2026-04-27 19:25 | 55.65884 | 8.26939 | 3014 ft | 248 kts | 77° |
| 2026-04-27 19:26 | 55.66272 | 8.29914 | 3013 ft | 248 kts | 77° |
| 2026-04-27 19:26 | 55.66658 | 8.32884 | 3014 ft | 248 kts | 77° |
| 2026-04-27 19:26 | 55.67044 | 8.35856 | 3014 ft | 247 kts | 77° |
| 2026-04-27 19:26 | 55.67432 | 8.38829 | 3014 ft | 248 kts | 77° |
| 2026-04-27 19:27 | 55.67811 | 8.41730 | 3009 ft | 232 kts | 77° |
| 2026-04-27 19:27 | 55.68167 | 8.44463 | 3013 ft | 230 kts | 77° |
| 2026-04-27 19:27 | 55.68529 | 8.47241 | 3014 ft | 232 kts | 77° |
| 2026-04-27 19:27 | 55.68892 | 8.50036 | 3014 ft | 233 kts | 77° |
| 2026-04-27 19:28 | 55.69254 | 8.52830 | 3014 ft | 233 kts | 77° |
| 2026-04-27 19:28 | 55.69616 | 8.55630 | 3011 ft | 233 kts | 77° |
| 2026-04-27 19:28 | 55.69976 | 8.58426 | 3011 ft | 233 kts | 77° |
| 2026-04-27 19:28 | 55.70336 | 8.61232 | 3012 ft | 237 kts | 77° |
| 2026-04-27 19:29 | 55.70711 | 8.64148 | 3013 ft | 245 kts | 77° |
| 2026-04-27 19:29 | 55.71092 | 8.67112 | 3012 ft | 247 kts | 77° |
| 2026-04-27 19:29 | 55.71471 | 8.70084 | 3012 ft | 247 kts | 77° |
| 2026-04-27 19:29 | 55.71847 | 8.73061 | 3011 ft | 248 kts | 77° |
| 2026-04-27 19:30 | 55.72219 | 8.76004 | 3010 ft | 247 kts | 77° |
| 2026-04-27 19:30 | 55.72599 | 8.78976 | 3012 ft | 247 kts | 77° |
| 2026-04-27 19:30 | 55.72914 | 8.81975 | 3012 ft | 247 kts | 83° |
| 2026-04-27 19:30 | 55.73059 | 8.85013 | 3012 ft | 247 kts | 86° |
| 2026-04-27 19:31 | 55.73152 | 8.87998 | 2995 ft | 234 kts | 86° |
| 2026-04-27 19:31 | 55.73242 | 8.90818 | 2790 ft | 225 kts | 86° |
| 2026-04-27 19:31 | 55.73333 | 8.93560 | 2511 ft | 221 kts | 86° |
| 2026-04-27 19:31 | 55.73421 | 8.96224 | 2213 ft | 211 kts | 86° |
| 2026-04-27 19:32 | 55.73504 | 8.98755 | 1930 ft | 198 kts | 86° |
| 2026-04-27 19:32 | 55.73582 | 9.01119 | 1669 ft | 186 kts | 85° |
| 2026-04-27 19:32 | 55.73662 | 9.03355 | 1398 ft | 177 kts | 85° |
| 2026-04-27 19:32 | 55.73730 | 9.05438 | 1234 ft | 161 kts | 86° |
| 2026-04-27 19:33 | 55.73794 | 9.07364 | 969 ft | 149 kts | 85° |
| 2026-04-27 19:33 | 55.73833 | 9.08529 | 830 ft | 140 kts | 86° |
| 2026-04-27 19:33 | 55.73903 | 9.10728 | 529 ft | 130 kts | 86° |
| 2026-04-27 19:33 | 55.73947 | 9.12304 | 358 ft | 126 kts | 86° |
| 2026-04-27 19:34 | 55.73999 | 9.13835 | 228 ft | 126 kts | 85° |
| 2026-04-27 19:34 | 55.74047 | 9.15209 | 232 ft | 92 kts | 90° |
| 2026-04-27 19:34 | 55.74066 | 9.16036 | 233 ft | 42 kts | 86° |
| 2026-04-27 19:34 | 55.74074 | 9.16260 | 237 ft | 3 kts | 86° |
| 2026-04-27 19:35 | 55.74077 | 9.16377 | 237 ft | 16 kts | 88° |
| 2026-04-27 19:35 | 55.74083 | 9.16625 | 241 ft | 24 kts | 90° |
| 2026-04-27 19:35 | 55.74147 | 9.16900 | 242 ft | 26 kts | 9° |
| 2026-04-27 19:35 | 55.74240 | 9.16871 | 241 ft | 10 kts | 309° |
| 2026-04-27 19:36 | 55.74251 | 9.16798 | 240 ft | 13 kts | 276° |